createdAt,value
2023-03-17T00:02:52.541Z,100804.63
2023-03-17T00:08:25.996Z,100797.91
2023-03-17T00:13:53.103Z,100795.19
2023-03-17T00:19:28.681Z,100788.72
2023-03-17T00:24:56.076Z,100793.88
2023-03-17T00:30:23.835Z,100792.13
2023-03-17T00:35:51.242Z,100795.16
2023-03-17T00:41:18.541Z,100794.63
2023-03-17T00:46:48.171Z,100792.38
2023-03-17T00:52:15.312Z,100773.38
2023-03-17T00:57:43.128Z,100766.78
2023-03-17T01:03:12.652Z,100748.88
2023-03-17T01:08:41.289Z,100733.44
2023-03-17T01:14:10.131Z,100730.44
2023-03-17T01:19:37.611Z,100720.59
2023-03-17T01:25:05.694Z,100701.84
2023-03-17T01:30:37.769Z,100706.47
2023-03-17T01:36:06.497Z,100707.81
2023-03-17T01:41:37.641Z,100707.78
2023-03-17T01:47:05.303Z,100706.38
2023-03-17T01:52:34.594Z,100698.28
2023-03-17T01:58:02.222Z,100687.97
2023-03-17T02:03:30.015Z,100694.81
2023-03-17T02:08:58.322Z,100715.13
2023-03-17T02:14:25.766Z,100697.09
2023-03-17T02:19:54.779Z,100687.34
2023-03-17T02:25:24.524Z,100689.25
2023-03-17T02:30:52.719Z,100681.16
2023-03-17T02:36:20.829Z,100673.06
2023-03-17T02:41:48.751Z,100668.06
2023-03-17T02:47:17.381Z,100669.78
2023-03-17T02:52:44.686Z,100674.75
2023-03-17T02:58:11.878Z,100678.28
2023-03-17T03:03:39.857Z,100678.41
2023-03-17T03:09:07.504Z,100677.78
2023-03-17T03:14:34.700Z,100677.25
2023-03-17T03:20:01.570Z,100672.88
2023-03-17T03:25:28.901Z,100668.44
2023-03-17T03:30:56.683Z,100659.59
2023-03-17T03:36:23.571Z,100654.25
2023-03-17T03:41:50.460Z,100643.97
2023-03-17T03:47:17.844Z,100642.69
2023-03-17T03:52:44.495Z,100642.44
2023-03-17T03:58:11.663Z,100635.91
2023-03-17T04:03:39.153Z,100628.16
2023-03-17T04:09:06.581Z,100639.63
2023-03-17T04:14:33.716Z,100634.47
2023-03-17T04:20:00.860Z,100632.97
2023-03-17T04:25:27.854Z,100621.56
2023-03-17T04:30:55.943Z,100630.31
2023-03-17T04:36:24.276Z,100624.75
2023-03-17T04:41:51.995Z,100622.78
2023-03-17T04:47:20.208Z,100624.38
2023-03-17T04:52:48.126Z,100622.19
2023-03-17T04:58:29.889Z,100635.38
2023-03-17T05:03:58.085Z,100626.63
2023-03-17T05:09:28.911Z,100622.69
2023-03-17T05:14:56.214Z,100618.94
2023-03-17T05:20:29.180Z,100616.25
2023-03-17T05:25:59.323Z,100609.53
2023-03-17T05:31:26.978Z,100608.56
2023-03-17T05:36:55.173Z,100596.72
2023-03-17T05:42:23.111Z,100594.88
2023-03-17T05:47:50.012Z,100604.56
2023-03-17T05:53:17.693Z,100596.00
2023-03-17T05:58:44.831Z,100602.22
2023-03-17T06:04:12.820Z,100611.22
2023-03-17T06:09:40.397Z,100609.38
2023-03-17T06:15:10.002Z,100607.84
2023-03-17T06:20:37.234Z,100617.44
2023-03-17T06:26:05.737Z,100608.41
2023-03-17T06:31:32.689Z,100604.69
2023-03-17T06:37:00.210Z,100594.22
2023-03-17T06:42:27.110Z,100611.81
2023-03-17T06:47:54.559Z,100607.41
2023-03-17T06:53:22.308Z,100603.25
2023-03-17T06:58:49.286Z,100600.28
2023-03-17T07:04:16.967Z,100597.28
2023-03-17T07:09:45.428Z,100601.50
2023-03-17T07:15:13.621Z,100608.50
2023-03-17T07:20:41.926Z,100603.53
2023-03-17T07:26:10.124Z,100600.72
2023-03-17T07:31:38.905Z,100595.50
2023-03-17T07:37:07.225Z,100592.78
2023-03-17T07:42:35.098Z,100591.50
2023-03-17T07:48:05.739Z,100582.44
2023-03-17T07:53:34.415Z,100577.78
2023-03-17T07:59:03.394Z,100583.91
2023-03-17T08:04:30.586Z,100581.94
2023-03-17T08:09:59.213Z,100585.03
2023-03-17T08:15:26.586Z,100573.25
2023-03-17T08:20:54.544Z,100571.91
2023-03-17T08:26:22.247Z,100559.81
2023-03-17T08:31:49.630Z,100549.22
2023-03-17T08:37:17.509Z,100542.78
2023-03-17T08:42:48.455Z,100543.13
2023-03-17T08:48:15.565Z,100535.38
2023-03-17T08:53:42.495Z,100537.69
2023-03-17T08:59:10.280Z,100554.41
2023-03-17T09:04:40.244Z,100570.22
2023-03-17T09:10:09.803Z,100562.91
2023-03-17T09:15:39.269Z,100558.69
2023-03-17T09:21:07.357Z,100548.50
2023-03-17T09:26:34.757Z,100564.16
2023-03-17T09:32:02.668Z,100574.59
2023-03-17T09:37:30.375Z,100543.69
2023-03-17T09:43:07.385Z,100523.88
2023-03-17T09:48:49.968Z,100530.03
2023-03-17T09:54:32.877Z,100551.06
2023-03-17T10:00:06.765Z,100539.72
2023-03-17T10:05:37.673Z,100539.22
2023-03-17T10:11:23.192Z,100528.25
2023-03-17T10:17:22.475Z,100532.38
2023-03-17T10:22:58.402Z,100520.09
2023-03-17T10:28:32.014Z,100504.31
2023-03-17T10:34:16.870Z,100515.22
2023-03-17T10:39:53.441Z,100524.94
2023-03-17T10:45:40.936Z,100519.97
2023-03-17T10:51:10.476Z,100529.69
2023-03-17T10:56:42.168Z,100499.78
2023-03-17T11:02:31.941Z,100475.34
2023-03-17T11:08:15.495Z,100462.03
2023-03-17T11:13:43.373Z,100431.28
2023-03-17T11:19:17.049Z,100434.88
2023-03-17T11:25:13.001Z,100447.56
2023-03-17T11:30:48.471Z,100428.38
2023-03-17T11:36:27.652Z,100418.63
2023-03-17T11:42:27.942Z,100400.97
2023-03-17T11:48:28.413Z,100399.34
2023-03-17T11:54:11.181Z,100397.13
2023-03-17T12:00:07.333Z,100386.22
2023-03-17T12:05:42.206Z,100376.69
2023-03-17T12:11:15.557Z,100370.13
2023-03-17T12:16:54.801Z,100345.25
2023-03-17T12:22:28.767Z,100347.91
2023-03-17T12:28:11.282Z,100324.88
2023-03-17T12:34:05.600Z,100320.00
2023-03-17T12:39:35.402Z,100348.06
2023-03-17T12:45:12.138Z,100324.47
2023-03-17T12:51:07.082Z,100324.38
2023-03-17T12:56:36.896Z,100317.88
2023-03-17T13:02:23.394Z,100301.59
2023-03-17T13:07:56.545Z,100307.13
2023-03-17T13:13:45.543Z,100298.09
2023-03-17T13:19:15.949Z,100303.31
2023-03-17T13:24:52.634Z,100309.72
2023-03-17T13:30:29.537Z,100315.09
2023-03-17T13:36:36.685Z,100283.91
2023-03-17T13:42:18.809Z,100288.50
2023-03-17T13:47:47.634Z,100274.91
2023-03-17T13:53:16.062Z,100267.06
2023-03-17T13:59:08.314Z,100271.69
2023-03-17T14:04:53.047Z,100267.69
2023-03-17T14:10:24.067Z,100276.44
2023-03-17T14:16:04.170Z,100263.63
2023-03-17T14:21:33.644Z,100274.28
2023-03-17T14:27:10.243Z,100255.41
2023-03-17T14:32:38.850Z,100252.06
2023-03-17T14:38:29.754Z,100244.50
2023-03-17T14:43:59.611Z,100223.34
2023-03-17T14:49:28.831Z,100237.44
2023-03-17T14:54:59.775Z,100211.47
2023-03-17T15:00:34.396Z,100217.59
2023-03-17T15:06:06.820Z,100208.06
2023-03-17T15:11:42.215Z,100188.66
2023-03-17T15:17:26.845Z,100191.69
2023-03-17T15:23:04.944Z,100182.84
2023-03-17T15:28:33.486Z,100182.00
2023-03-17T15:34:02.165Z,100178.66
2023-03-17T15:39:30.376Z,100174.00
2023-03-17T15:45:00.340Z,100163.31
2023-03-17T15:50:31.100Z,100172.28
2023-03-17T15:55:59.705Z,100187.91
2023-03-17T16:01:28.042Z,100183.06
2023-03-17T16:06:56.351Z,100176.09
2023-03-17T16:12:24.214Z,100180.31
2023-03-17T16:17:55.138Z,100171.31
2023-03-17T16:23:29.042Z,100169.16
2023-03-17T16:28:58.839Z,100162.00
2023-03-17T16:34:29.114Z,100171.84
2023-03-17T16:40:00.935Z,100182.41
2023-03-17T16:45:34.391Z,100174.59
2023-03-17T16:51:03.725Z,100181.34
2023-03-17T16:56:33.445Z,100176.84
2023-03-17T17:02:03.247Z,100183.69
2023-03-17T17:07:33.418Z,100178.16
2023-03-17T17:13:07.521Z,100177.44
2023-03-17T17:18:37.984Z,100187.41
2023-03-17T17:24:08.783Z,100203.59
2023-03-17T17:29:39.796Z,100198.09
2023-03-17T17:35:11.344Z,100199.13
2023-03-17T17:40:43.217Z,100194.47
2023-03-17T17:46:16.781Z,100192.94
2023-03-17T17:51:45.943Z,100193.56
2023-03-17T17:57:19.142Z,100204.59
2023-03-17T18:02:51.975Z,100193.81
2023-03-17T18:08:22.548Z,100194.91
2023-03-17T18:13:52.556Z,100199.91
2023-03-17T18:19:23.959Z,100185.41
2023-03-17T18:24:53.673Z,100176.66
2023-03-17T18:30:28.582Z,100170.38
2023-03-17T18:35:59.557Z,100174.34
2023-03-17T18:41:29.573Z,100172.09
2023-03-17T18:47:01.247Z,100180.38
2023-03-17T18:52:38.653Z,100178.59
2023-03-17T18:58:06.589Z,100173.13
2023-03-17T19:03:34.314Z,100177.28
2023-03-17T19:09:02.428Z,100176.88
2023-03-17T19:14:30.002Z,100181.56
2023-03-17T19:19:57.555Z,100180.22
2023-03-17T19:25:26.222Z,100178.53
2023-03-17T19:30:56.227Z,100174.94
2023-03-17T19:36:24.608Z,100180.53
2023-03-17T19:41:56.191Z,100167.88
2023-03-17T19:47:23.460Z,100167.47
2023-03-17T19:52:53.424Z,100171.63
2023-03-17T19:58:21.894Z,100172.84
2023-03-17T20:03:49.588Z,100174.38
2023-03-17T20:09:17.312Z,100178.81
2023-03-17T20:14:44.581Z,100170.75
2023-03-17T20:20:12.890Z,100156.88
2023-03-17T20:25:40.196Z,100159.78
2023-03-17T20:31:08.395Z,100153.44
2023-03-17T20:36:35.356Z,100155.25
2023-03-17T20:42:04.483Z,100147.41
2023-03-17T20:47:32.298Z,100152.13
2023-03-17T20:52:59.445Z,100153.50
2023-03-17T20:58:27.902Z,100149.53
2023-03-17T21:03:55.567Z,100145.88
2023-03-17T21:09:24.153Z,100145.22
2023-03-17T21:14:53.560Z,100144.22
2023-03-17T21:20:23.908Z,100145.13
2023-03-17T21:25:56.182Z,100135.97
2023-03-17T21:31:23.659Z,100131.22
2023-03-17T21:36:52.136Z,100125.56
2023-03-17T21:42:19.852Z,100117.59
2023-03-17T21:47:48.063Z,100113.50
2023-03-17T21:53:16.004Z,100115.53
2023-03-17T21:58:43.774Z,100104.69
2023-03-17T22:04:12.744Z,100096.75
2023-03-17T22:09:43.089Z,100103.13
2023-03-17T22:15:13.531Z,100107.25
2023-03-17T22:20:42.937Z,100100.56
2023-03-17T22:26:18.861Z,100101.44
2023-03-17T22:31:49.254Z,100102.00
2023-03-17T22:37:19.332Z,100099.44
2023-03-17T22:42:49.902Z,100097.53
2023-03-17T22:48:19.288Z,100090.84
2023-03-17T22:53:49.483Z,100079.59
2023-03-17T22:59:19.913Z,100083.16
2023-03-17T23:04:48.717Z,100093.00
2023-03-17T23:10:23.206Z,100089.72
2023-03-17T23:15:53.271Z,100077.09
2023-03-17T23:21:30.845Z,100079.31
2023-03-17T23:26:59.762Z,100084.06
2023-03-17T23:32:30.011Z,100078.06
2023-03-17T23:37:59.261Z,100085.50
2023-03-17T23:43:27.669Z,100084.16
